Time;durP1;ratioP1;P1;durP2;ratioP2;P2;SDS_P1;SDS_P2;PMS_P1;PMS_P2;Temp;Humidity;BMP_temperature;BMP_pressure;BME280_temperature;BME280_humidity;BME280_pressure;Samples;Min_cycle;Max_cycle;Signal;HPM_P1;HPM_P2
2022/01/27 00:03:15;;;;;;;1999.90;999.90;;;;;;;-2.00;65.01;102020.66;4962909;23;100293;-70
2022/01/27 00:05:48;;;;;;;1999.90;999.90;;;;;;;-2.00;64.28;102021.56;4956613;28;97513;-70
2022/01/27 00:08:20;;;;;;;1999.90;999.90;;;;;;;-1.98;65.02;102025.22;4960147;28;97698;-70
2022/01/27 00:10:52;;;;;;;1999.90;999.90;;;;;;;-2.00;64.96;102016.34;4944085;28;101189;-70
2022/01/27 00:13:28;;;;;;;1999.90;999.90;;;;;;;-1.98;64.88;102025.22;4947537;28;99614;-70
2022/01/27 00:16:10;;;;;;;1999.90;999.90;;;;;;;-1.97;64.38;102016.63;4941023;28;97464;-69
2022/01/27 00:18:39;;;;;;;1999.90;999.90;;;;;;;-1.95;64.51;102003.72;4946727;28;96748;-70
2022/01/27 00:21:06;;;;;;;1999.90;999.90;;;;;;;-1.91;64.25;102001.50;4943054;28;99756;-68
2022/01/27 00:23:35;;;;;;;1999.90;999.90;;;;;;;-1.91;64.97;102003.22;4940131;28;100295;-70
2022/01/27 00:26:03;;;;;;;1999.90;999.90;;;;;;;-1.83;64.56;102003.94;4949242;28;97212;-70
2022/01/27 00:28:32;;;;;;;1999.90;999.90;;;;;;;-1.82;64.07;102005.75;4946895;28;97247;-69
2022/01/27 00:31:00;;;;;;;1999.90;999.90;;;;;;;-1.83;64.01;101993.50;4943796;28;99781;-69
2022/01/27 00:33:27;;;;;;;1999.90;999.90;;;;;;;-1.81;64.21;101992.81;4945842;28;97586;-70
2022/01/27 00:35:55;;;;;;;1999.90;999.90;;;;;;;-1.80;64.64;101989.47;4944942;28;97243;-69
2022/01/27 00:38:23;;;;;;;1999.90;999.90;;;;;;;-1.87;64.20;101981.88;4945870;28;97178;-70
2022/01/27 00:40:51;;;;;;;1999.90;999.90;;;;;;;-1.88;64.62;101974.81;4943905;28;97597;-70
2022/01/27 00:43:19;;;;;;;1999.90;999.90;;;;;;;-1.87;64.95;101963.63;4942395;28;98816;-70
2022/01/27 00:45:48;;;;;;;1999.90;999.90;;;;;;;-1.86;64.36;101965.44;4941573;28;98000;-69
2022/01/27 00:48:17;;;;;;;1999.90;999.90;;;;;;;-1.85;64.44;101956.81;4944014;28;96980;-70
2022/01/27 00:50:50;;;;;;;1999.90;999.90;;;;;;;-1.83;64.90;101956.97;4945437;28;100394;-71
2022/01/27 00:53:28;;;;;;;1999.90;999.90;;;;;;;-1.82;64.29;101948.34;4942261;28;97716;-70
2022/01/27 00:56:04;;;;;;;1999.90;999.90;;;;;;;-1.83;64.51;101938.72;4926186;28;98407;-69
2022/01/27 00:58:44;;;;;;;1999.90;999.90;;;;;;;-1.83;64.71;101933.50;4942610;28;98082;-69
2022/01/27 01:01:17;;;;;;;1999.90;999.90;;;;;;;-1.82;64.76;101922.25;4946688;28;97411;-70
2022/01/27 01:03:48;;;;;;;1999.90;999.90;;;;;;;-1.82;64.42;101913.66;4929878;28;100045;-69
2022/01/27 01:06:31;;;;;;;1999.90;999.90;;;;;;;-1.82;64.65;101911.03;4945278;28;98889;-69
2022/01/27 01:14:42;;;;;;;1999.90;999.90;;;;;;;-1.86;64.84;101898.53;4942756;28;100483;-70
2022/01/27 01:17:28;;;;;;;1999.90;999.90;;;;;;;-1.88;64.82;101889.66;4941852;28;98161;-69
2022/01/27 01:20:19;;;;;;;1999.90;999.90;;;;;;;-1.86;64.24;101895.91;4948442;28;97340;-70
2022/01/27 01:31:26;;;;;;;1999.90;999.90;;;;;;;-1.83;64.23;101886.53;4947858;28;98905;-68
2022/01/27 01:34:10;;;;;;;1999.90;999.90;;;;;;;-1.87;64.86;101877.53;4962294;28;96759;-69
2022/01/27 01:36:46;;;;;;;1999.90;999.90;;;;;;;-1.85;64.76;101888.97;4944313;28;99354;-68
2022/01/27 01:39:14;;;;;;;1999.90;999.90;;;;;;;-1.84;64.55;101893.44;4947804;28;97367;-67
2022/01/27 01:41:42;;;;;;;1999.90;999.90;;;;;;;-1.80;64.16;101886.78;4944802;28;97394;-68
2022/01/27 01:44:10;;;;;;;1999.90;999.90;;;;;;;-1.86;64.36;101884.56;4959550;28;98951;-68
2022/01/27 01:46:38;;;;;;;1999.90;999.90;;;;;;;-1.86;64.77;101888.09;4942892;28;97772;-68
2022/01/27 01:49:07;;;;;;;1999.90;999.90;;;;;;;-1.85;64.49;101873.31;4940217;28;97836;-66
2022/01/27 01:51:37;;;;;;;1999.90;999.90;;;;;;;-1.85;64.99;101868.13;4937364;28;97083;-71
2022/01/27 01:54:05;;;;;;;1999.90;999.90;;;;;;;-1.80;64.64;101863.31;4941501;28;99123;-71
2022/01/27 01:56:33;;;;;;;1999.90;999.90;;;;;;;-1.77;64.45;101859.28;4958731;28;99223;-70
2022/01/27 01:59:01;;;;;;;1999.90;999.90;;;;;;;-1.76;64.21;101840.22;4950774;28;97971;-70
2022/01/27 02:01:29;;;;;;;1999.90;999.90;;;;;;;-1.75;63.90;101839.47;4961830;28;98173;-69
2022/01/27 02:03:59;;;;;;;1999.90;999.90;;;;;;;-1.77;63.90;101838.41;4947776;28;100075;-70
2022/01/27 02:06:33;;;;;;;1999.90;999.90;;;;;;;-1.75;64.01;101857.72;4943288;28;97646;-69
2022/01/27 02:09:16;;;;;;;1999.90;999.90;;;;;;;-1.75;64.33;101859.41;4944205;28;97659;-69
2022/01/27 02:20:03;;;;;;;1999.90;999.90;;;;;;;-1.77;64.19;101833.19;4946598;28;98680;-70
2022/01/27 02:22:30;;;;;;;1999.90;999.90;;;;;;;-1.74;63.91;101835.16;4946978;28;96943;-71
2022/01/27 02:24:58;;;;;;;1999.90;999.90;;;;;;;-1.74;63.90;101817.78;4942317;28;97693;-69
2022/01/27 02:27:26;;;;;;;1999.90;999.90;;;;;;;-1.73;64.23;101831.75;4944577;28;97169;-68
2022/01/27 02:29:54;;;;;;;1999.90;999.90;;;;;;;-1.70;64.32;101818.97;4948707;28;97799;-70
2022/01/27 02:32:24;;;;;;;1999.90;999.90;;;;;;;-1.68;63.95;101815.72;4945623;28;97597;-70
2022/01/27 02:34:52;;;;;;;1999.90;999.90;;;;;;;-1.67;63.70;101812.34;4945287;28;98130;-70
2022/01/27 02:37:21;;;;;;;1999.90;999.90;;;;;;;-1.68;63.65;101807.88;4960763;28;99332;-70
2022/01/27 02:39:48;;;;;;;1999.90;999.90;;;;;;;-1.68;64.25;101806.97;4944359;28;97321;-71
2022/01/27 02:42:17;;;;;;;1999.90;999.90;;;;;;;-1.68;64.27;101793.91;4943482;28;97823;-69
2022/01/27 02:45:03;;;;;;;1999.90;999.90;;;;;;;-1.69;63.42;101771.25;4947954;28;98075;-68
2022/01/27 02:47:30;;;;;;;1999.90;999.90;;;;;;;-1.70;63.53;101772.91;4944588;28;98791;-69
2022/01/27 02:49:58;;;;;;;1999.90;999.90;;;;;;;-1.68;64.33;101771.38;4945350;28;97124;-69
2022/01/27 02:52:27;;;;;;;1999.90;999.90;;;;;;;-1.66;63.78;101755.84;4947446;28;96962;-69
2022/01/27 02:54:55;;;;;;;1999.90;999.90;;;;;;;-1.68;64.19;101754.78;4961510;28;99876;-68
2022/01/27 02:57:23;;;;;;;1999.90;999.90;;;;;;;-1.70;64.14;101736.41;4942838;28;98402;-69
2022/01/27 02:59:52;;;;;;;1999.90;999.90;;;;;;;-1.69;63.82;101742.53;4942674;28;96936;-69
2022/01/27 03:02:20;;;;;;;1999.90;999.90;;;;;;;-1.69;64.03;101746.06;4961699;28;98047;-69
2022/01/27 03:04:48;;;;;;;1999.90;999.90;;;;;;;-1.68;63.88;101757.41;4958450;28;99941;-69
2022/01/27 03:07:16;;;;;;;1999.90;999.90;;;;;;;-1.69;63.51;101737.31;4943900;28;100311;-69
2022/01/27 03:09:56;;;;;;;1999.90;999.90;;;;;;;-1.70;64.29;101735.47;4955782;28;97669;-71
2022/01/27 03:12:26;;;;;;;1999.90;999.90;;;;;;;-1.70;63.69;101725.03;4941012;28;99053;-69
2022/01/27 03:14:55;;;;;;;1999.90;999.90;;;;;;;-1.73;64.21;101748.28;4930131;28;97587;-71
2022/01/27 03:17:22;;;;;;;1999.90;999.90;;;;;;;-1.73;64.02;101735.22;4941499;28;98755;-70
2022/01/27 03:19:51;;;;;;;1999.90;999.90;;;;;;;-1.72;64.16;101731.84;4946694;28;97382;-68
2022/01/27 03:22:19;;;;;;;1999.90;999.90;;;;;;;-1.76;63.97;101721.94;4943445;28;98075;-69
2022/01/27 03:24:47;;;;;;;1999.90;999.90;;;;;;;-1.75;64.16;101731.56;4945088;28;100770;-67
2022/01/27 03:27:19;;;;;;;1999.90;999.90;;;;;;;-1.80;63.46;101736.41;4951385;28;98700;-69
2022/01/27 03:29:47;;;;;;;1999.90;999.90;;;;;;;-1.76;63.70;101729.75;4944452;28;98357;-68
2022/01/27 03:32:15;;;;;;;1999.90;999.90;;;;;;;-1.76;64.15;101724.53;4945505;28;98249;-70
2022/01/27 03:34:43;;;;;;;1999.90;999.90;;;;;;;-1.82;63.59;101723.22;4947251;28;97776;-69
2022/01/27 03:37:11;;;;;;;1999.90;999.90;;;;;;;-1.79;63.90;101712.13;4946828;28;98747;-71
2022/01/27 03:39:41;;;;;;;1999.90;999.90;;;;;;;-1.78;63.54;101732.25;4944992;28;97670;-72
2022/01/27 03:42:09;;;;;;;1999.90;999.90;;;;;;;-1.80;64.00;101723.38;4942285;28;98653;-68
2022/01/27 03:44:38;;;;;;;1999.90;999.90;;;;;;;-1.79;63.34;101738.22;4945754;28;98465;-70
2022/01/27 03:47:06;;;;;;;1999.90;999.90;;;;;;;-1.80;64.07;101722.44;4945744;28;98895;-70
2022/01/27 03:49:34;;;;;;;1999.90;999.90;;;;;;;-1.82;64.34;101712.78;4945150;28;97134;-71
2022/01/27 03:52:02;;;;;;;1999.90;999.90;;;;;;;-1.83;64.03;101701.34;4947472;28;96883;-70
2022/01/27 03:54:31;;;;;;;1999.90;999.90;;;;;;;-1.84;63.53;101710.84;4949169;28;99299;-71
2022/01/27 03:56:59;;;;;;;1999.90;999.90;;;;;;;-1.84;63.92;101695.19;4952556;28;98613;-69
2022/01/27 03:59:27;;;;;;;1999.90;999.90;;;;;;;-1.84;63.61;101687.38;4944159;28;97189;-69
2022/01/27 04:01:57;;;;;;;1999.90;999.90;;;;;;;-1.84;63.74;101695.19;4946189;28;97687;-69
2022/01/27 04:04:26;;;;;;;1999.90;999.90;;;;;;;-1.83;63.84;101696.13;4948566;28;97568;-70
2022/01/27 04:06:54;;;;;;;1999.90;999.90;;;;;;;-1.83;63.59;101693.50;4943718;28;97684;-71
2022/01/27 04:09:24;;;;;;;1999.90;999.90;;;;;;;-1.82;64.11;101684.88;4930717;28;97710;-70
2022/01/27 04:11:53;;;;;;;1999.90;999.90;;;;;;;-1.84;64.25;101689.97;4947600;28;97399;-69
2022/01/27 04:14:21;;;;;;;1999.90;999.90;;;;;;;-1.83;63.61;101683.06;4944996;28;98810;-70
2022/01/27 04:16:48;;;;;;;1999.90;999.90;;;;;;;-1.85;64.17;101655.16;4945464;28;98770;-70
2022/01/27 04:19:17;;;;;;;1999.90;999.90;;;;;;;-1.79;64.04;101666.88;4949975;28;97363;-70
2022/01/27 04:21:50;;;;;;;1999.90;999.90;;;;;;;-1.80;64.13;101680.72;4944531;28;97120;-70
2022/01/27 04:24:18;;;;;;;1999.90;999.90;;;;;;;-1.79;63.64;101669.47;4941518;28;97545;-71
2022/01/27 04:26:50;;;;;;;1999.90;999.90;;;;;;;-1.80;64.00;101659.84;4948191;28;97212;-72
2022/01/27 04:29:21;;;;;;;1999.90;999.90;;;;;;;-1.78;63.94;101663.50;4944466;28;96839;-70
2022/01/27 04:31:50;;;;;;;1999.90;999.90;;;;;;;-1.79;63.96;101646.91;4930938;28;98396;-69
2022/01/27 04:34:20;;;;;;;1999.90;999.90;;;;;;;-1.75;63.83;101655.91;4943208;28;99349;-69
2022/01/27 04:36:47;;;;;;;1999.90;999.90;;;;;;;-1.86;63.53;101629.84;4943052;28;99938;-69
2022/01/27 04:39:20;;;;;;;1999.90;999.90;;;;;;;-1.78;63.54;101634.81;4947405;28;97432;-70
2022/01/27 04:41:53;;;;;;;1999.90;999.90;;;;;;;-1.79;63.52;101619.91;4945105;28;96942;-70
2022/01/27 04:44:27;;;;;;;1999.90;999.90;;;;;;;-1.80;63.55;101628.53;4948646;28;98674;-71
2022/01/27 04:47:00;;;;;;;1999.90;999.90;;;;;;;-1.79;63.96;101614.69;4957014;28;99367;-70
2022/01/27 04:49:30;;;;;;;1999.90;999.90;;;;;;;-1.80;63.88;101618.09;4945453;28;96783;-69
2022/01/27 04:51:57;;;;;;;1999.90;999.90;;;;;;;-1.79;63.75;101627.75;4943019;28;97329;-71
2022/01/27 04:54:30;;;;;;;1999.90;999.90;;;;;;;-1.80;64.04;101598.16;4948849;28;97838;-69
2022/01/27 04:57:00;;;;;;;1999.90;999.90;;;;;;;-1.77;63.85;101603.63;4930462;28;99151;-70
2022/01/27 04:59:31;;;;;;;1999.90;999.90;;;;;;;-1.80;63.59;101607.66;4945437;28;97499;-70
2022/01/27 05:02:03;;;;;;;1999.90;999.90;;;;;;;-1.79;63.58;101612.09;4940834;28;99933;-69
2022/01/27 05:04:36;;;;;;;1999.90;999.90;;;;;;;-1.80;63.48;101610.28;4942273;28;98569;-72
2022/01/27 05:07:04;;;;;;;1999.90;999.90;;;;;;;-1.80;63.55;101615.50;4941787;28;97750;-72
2022/01/27 05:09:32;;;;;;;1999.90;999.90;;;;;;;-1.77;63.18;101619.28;4942777;28;96776;-72
2022/01/27 05:12:10;;;;;;;1999.90;999.90;;;;;;;-1.78;64.00;101601.81;4945241;28;97318;-70
2022/01/27 05:14:38;;;;;;;1999.90;999.90;;;;;;;-1.76;63.44;101612.38;4940343;28;99013;-70
2022/01/27 05:17:05;;;;;;;1999.90;999.90;;;;;;;-1.78;63.50;101613.94;4938613;28;97669;-69
2022/01/27 05:19:35;;;;;;;1999.90;999.90;;;;;;;-1.77;63.21;101587.97;4924609;28;98760;-69
2022/01/27 05:22:03;;;;;;;1999.90;999.90;;;;;;;-1.80;63.28;101578.97;4949525;28;97824;-72
2022/01/27 05:24:31;;;;;;;1999.90;999.90;;;;;;;-1.78;63.37;101573.13;4937168;28;99213;-70
2022/01/27 05:26:59;;;;;;;1999.90;999.90;;;;;;;-1.79;63.29;101572.97;4936553;28;97078;-70
2022/01/27 05:29:26;;;;;;;1999.90;999.90;;;;;;;-1.82;63.01;101556.28;4937089;28;98412;-70
2022/01/27 05:31:56;;;;;;;1999.90;999.90;;;;;;;-1.89;63.25;101564.38;4938753;28;98873;-69
2022/01/27 05:34:23;;;;;;;1999.90;999.90;;;;;;;-1.91;63.35;101547.69;4942024;28;97697;-71
2022/01/27 05:36:52;;;;;;;1999.90;999.90;;;;;;;-1.90;63.14;101575.59;4940988;28;98737;-71
2022/01/27 05:39:20;;;;;;;1999.90;999.90;;;;;;;-1.93;63.45;101546.69;4955833;28;100664;-70
2022/01/27 05:41:48;;;;;;;1999.90;999.90;;;;;;;-1.96;62.54;101535.97;4955542;28;99947;-71
2022/01/27 05:44:16;;;;;;;1999.90;999.90;;;;;;;-1.94;62.79;101543.91;4943538;28;97111;-70
2022/01/27 05:46:46;;;;;;;1999.90;999.90;;;;;;;-1.95;63.15;101535.22;4945865;28;97606;-70
2022/01/27 05:49:14;;;;;;;1999.90;999.90;;;;;;;-1.96;62.51;101532.44;4945410;28;98261;-69
2022/01/27 05:51:42;;;;;;;1999.90;999.90;;;;;;;-1.95;62.90;101544.72;4945232;28;97597;-68
2022/01/27 05:54:11;;;;;;;1999.90;999.90;;;;;;;-1.97;62.90;101533.25;4945711;28;99801;-70
2022/01/27 05:56:38;;;;;;;1999.90;999.90;;;;;;;-1.97;62.64;101547.22;4944454;28;99248;-69
2022/01/27 05:59:06;;;;;;;1999.90;999.90;;;;;;;-1.97;63.17;101535.84;4944624;28;96877;-69
2022/01/27 06:01:34;;;;;;;1999.90;999.90;;;;;;;-1.97;62.51;101546.28;4948685;28;97344;-70
2022/01/27 06:04:02;;;;;;;1999.90;999.90;;;;;;;-1.98;62.51;101526.22;4968733;22;100404;-70
2022/01/27 06:06:31;;;;;;;1999.90;999.90;;;;;;;-1.99;63.25;101522.69;4973420;28;102365;-70
2022/01/27 06:08:59;;;;;;;1999.90;999.90;;;;;;;-2.00;63.02;101522.56;4976750;28;96963;-71
2022/01/27 06:11:28;;;;;;;1999.90;999.90;;;;;;;-1.99;62.61;101520.09;4982296;28;97019;-71
2022/01/27 06:13:55;;;;;;;1999.90;999.90;;;;;;;-2.03;62.09;101527.50;4997575;28;99015;-72
2022/01/27 06:16:23;;;;;;;1999.90;999.90;;;;;;;-2.07;62.37;101520.25;4962219;28;99451;-71
2022/01/27 06:18:51;;;;;;;1999.90;999.90;;;;;;;-2.07;62.20;101517.63;4963532;28;96807;-71
2022/01/27 06:21:20;;;;;;;1999.90;999.90;;;;;;;-2.10;62.32;101523.50;4962846;28;97205;-71
2022/01/27 06:23:48;;;;;;;1999.90;999.90;;;;;;;-2.11;62.08;101508.63;4963486;28;100500;-71
2022/01/27 06:26:16;;;;;;;1999.90;999.90;;;;;;;-2.12;62.72;101508.50;4965734;28;97893;-70
2022/01/27 06:28:45;;;;;;;1999.90;999.90;;;;;;;-2.13;62.70;101501.47;4965571;28;96757;-71
2022/01/27 06:31:13;;;;;;;1999.90;999.90;;;;;;;-2.13;62.15;101504.09;4960042;28;97265;-71
2022/01/27 06:33:40;;;;;;;1999.90;999.90;;;;;;;-2.19;62.77;101494.03;4966672;28;98924;-70
2022/01/27 06:36:08;;;;;;;1999.90;999.90;;;;;;;-2.16;62.67;101496.91;4964348;28;97137;-71
2022/01/27 06:38:36;;;;;;;1999.90;999.90;;;;;;;-2.18;62.11;101498.44;4965493;28;96895;-73
2022/01/27 06:41:03;;;;;;;1999.90;999.90;;;;;;;-2.19;62.49;101490.50;4962083;28;97706;-71
2022/01/27 06:43:31;;;;;;;1999.90;999.90;;;;;;;-2.18;62.80;101493.22;4945916;28;97844;-70
2022/01/27 06:46:00;;;;;;;1999.90;999.90;;;;;;;-2.17;62.98;101479.47;4959925;28;98898;-71
2022/01/27 06:48:28;;;;;;;1999.90;999.90;;;;;;;-2.17;62.82;101494.19;4960462;28;96802;-72
2022/01/27 06:50:56;;;;;;;1999.90;999.90;;;;;;;-2.16;62.63;101475.13;4955615;28;99360;-71
2022/01/27 06:53:24;;;;;;;1999.90;999.90;;;;;;;-2.16;62.39;101480.34;4958742;28;99947;-71
2022/01/27 06:55:54;;;;;;;1999.90;999.90;;;;;;;-2.14;62.71;101471.88;4962041;28;99333;-70
2022/01/27 06:58:21;;;;;;;1999.90;999.90;;;;;;;-2.13;62.59;101491.97;4961021;28;97862;-71
2022/01/27 07:00:49;;;;;;;1999.90;999.90;;;;;;;-2.12;62.41;101479.81;4962715;28;97437;-71
2022/01/27 07:03:18;;;;;;;1999.90;999.90;;;;;;;-2.13;62.53;101476.31;4962442;28;101159;-71
2022/01/27 07:05:46;;;;;;;1999.90;999.90;;;;;;;-2.14;62.56;101476.16;4962042;28;96780;-71
2022/01/27 07:08:14;;;;;;;1999.90;999.90;;;;;;;-2.15;62.08;101471.75;4956427;28;98872;-70
2022/01/27 07:10:41;;;;;;;1999.90;999.90;;;;;;;-2.15;62.38;101467.47;4959426;28;97296;-70
2022/01/27 07:13:10;;;;;;;1999.90;999.90;;;;;;;-2.13;61.95;101465.91;4959906;28;100955;-70
2022/01/27 07:15:39;;;;;;;1999.90;999.90;;;;;;;-2.15;62.59;101462.25;4962320;28;99632;-70
2022/01/27 07:18:07;;;;;;;1999.90;999.90;;;;;;;-2.15;62.24;101440.47;4962355;28;96895;-69
2022/01/27 07:20:36;;;;;;;1999.90;999.90;;;;;;;-2.15;62.10;101454.44;4959071;28;97415;-71
2022/01/27 07:23:04;;;;;;;1999.90;999.90;;;;;;;-2.14;61.92;101452.72;4965344;28;97597;-70
2022/01/27 07:25:31;;;;;;;1999.90;999.90;;;;;;;-2.13;62.53;101465.91;4960493;28;97525;-70
2022/01/27 07:27:59;;;;;;;1999.90;999.90;;;;;;;-2.11;62.38;101452.97;4962016;28;97274;-70
2022/01/27 07:30:27;;;;;;;1999.90;999.90;;;;;;;-2.10;62.78;101460.94;4965887;28;96967;-70
2022/01/27 07:32:55;;;;;;;1999.90;999.90;;;;;;;-2.08;62.91;101461.97;4966803;28;99069;-70
2022/01/27 07:35:23;;;;;;;1999.90;999.90;;;;;;;-2.05;62.41;101454.38;4956020;28;99344;-70
2022/01/27 07:37:52;;;;;;;1999.90;999.90;;;;;;;-2.04;62.24;101435.38;4963175;28;96759;-70
2022/01/27 07:40:20;;;;;;;1999.90;999.90;;;;;;;-2.02;62.42;101425.06;4961467;28;97709;-70
2022/01/27 07:43:10;;;;;;;1999.90;999.90;;;;;;;-2.02;62.56;101451.13;4960225;28;96731;-70
2022/01/27 07:45:38;;;;;;;1999.90;999.90;;;;;;;-2.00;62.10;101447.84;4960115;28;100505;-70
2022/01/27 07:48:06;;;;;;;1999.90;999.90;;;;;;;-2.00;62.80;101447.84;4959580;28;96719;-69
2022/01/27 07:50:34;;;;;;;1999.90;999.90;;;;;;;-1.98;62.08;101434.97;4966565;28;99336;-70
2022/01/27 07:53:03;;;;;;;1999.90;999.90;;;;;;;-1.97;62.57;101436.75;4963862;28;97694;-71
2022/01/27 07:55:31;;;;;;;1999.90;999.90;;;;;;;-1.97;62.25;101427.25;4962054;28;97324;-70
2022/01/27 07:57:58;;;;;;;1999.90;999.90;;;;;;;-1.98;61.91;101417.59;4967862;28;96858;-70
2022/01/27 08:00:26;;;;;;;1999.90;999.90;;;;;;;-1.98;62.41;101404.53;4962458;28;96928;-70
2022/01/27 08:02:54;;;;;;;1999.90;999.90;;;;;;;-1.96;62.78;101399.44;4959959;28;99441;-70
2022/01/27 08:05:22;;;;;;;1999.90;999.90;;;;;;;-1.93;63.08;101394.50;4960726;28;98050;-70
2022/01/27 08:07:51;;;;;;;1999.90;999.90;;;;;;;-1.89;62.17;101396.56;4963487;28;97176;-70
2022/01/27 08:10:20;;;;;;;1999.90;999.90;;;;;;;-1.89;62.52;101393.97;4960570;28;97385;-70
2022/01/27 08:12:48;;;;;;;1999.90;999.90;;;;;;;-1.90;62.50;101390.44;4959499;28;97883;-70
2022/01/27 08:15:19;;;;;;;1999.90;999.90;;;;;;;-1.90;62.04;101398.25;4956885;28;98374;-71
2022/01/27 08:17:46;;;;;;;1999.90;999.90;;;;;;;-1.89;62.71;101400.06;4955237;28;97447;-70
2022/01/27 08:20:14;;;;;;;1999.90;999.90;;;;;;;-1.87;62.63;101401.09;4943049;28;97236;-71
2022/01/27 08:22:44;;;;;;;1999.90;999.90;;;;;;;-1.88;62.63;101401.91;4941847;28;99790;-70
2022/01/27 08:25:13;;;;;;;1999.90;999.90;;;;;;;-1.89;62.47;101394.84;4963440;28;99710;-70
2022/01/27 08:27:48;;;;;;;1999.90;999.90;;;;;;;-1.89;62.79;101389.63;4961403;28;97762;-69
2022/01/27 08:30:18;;;;;;;1999.90;999.90;;;;;;;-1.89;62.16;101400.06;4959288;28;96694;-71
2022/01/27 08:32:49;;;;;;;1999.90;999.90;;;;;;;-1.86;62.52;101369.03;4965343;28;97586;-71
2022/01/27 08:35:19;;;;;;;1999.90;999.90;;;;;;;-1.86;62.30;101379.47;4964525;28;98745;-72
2022/01/27 08:37:46;;;;;;;1999.90;999.90;;;;;;;-1.83;62.11;101373.56;4959561;28;96574;-72
2022/01/27 08:40:16;;;;;;;1999.90;999.90;;;;;;;-1.82;62.54;101360.66;4966698;28;96734;-72
2022/01/27 08:43:06;;;;;;;1999.90;999.90;;;;;;;-1.83;62.04;101372.69;4959861;28;99092;-71
2022/01/27 08:45:33;;;;;;;1999.90;999.90;;;;;;;-1.82;62.40;101378.00;4977016;28;99282;-71
2022/01/27 08:48:02;;;;;;;1999.90;999.90;;;;;;;-1.82;62.04;101378.91;4959127;28;96808;-72
2022/01/27 08:50:30;;;;;;;1999.90;999.90;;;;;;;-1.80;62.63;101376.44;4961020;28;96607;-72
2022/01/27 08:52:58;;;;;;;1999.90;999.90;;;;;;;-1.78;62.20;101368.72;4958007;28;97563;-72
2022/01/27 08:55:25;;;;;;;1999.90;999.90;;;;;;;-1.78;61.96;101385.31;4944021;28;97705;-71
2022/01/27 08:57:54;;;;;;;1999.90;999.90;;;;;;;-1.77;62.64;101373.16;4964121;28;96854;-72
2022/01/27 09:00:23;;;;;;;1999.90;999.90;;;;;;;-1.76;62.34;101359.34;4961622;28;96797;-70
2022/01/27 09:03:11;;;;;;;1999.90;999.90;;;;;;;-1.72;62.60;101366.63;4959061;28;99246;-70
2022/01/27 09:05:40;;;;;;;1999.90;999.90;;;;;;;-1.73;62.17;101365.69;4962878;28;100771;-72
2022/01/27 09:08:08;;;;;;;1999.90;999.90;;;;;;;-1.68;62.60;101376.47;4938782;28;96913;-72
2022/01/27 09:10:36;;;;;;;1999.90;999.90;;;;;;;-1.65;62.12;101359.38;4962975;28;96893;-72
2022/01/27 09:13:04;;;;;;;1999.90;999.90;;;;;;;-1.64;62.50;101350.78;4960438;28;97887;-72
2022/01/27 09:15:33;;;;;;;1999.90;999.90;;;;;;;-1.60;62.48;101354.53;4957362;28;98815;-72
2022/01/27 09:18:01;;;;;;;1999.90;999.90;;;;;;;-1.56;62.60;101360.09;4964411;28;96794;-72
2022/01/27 09:20:29;;;;;;;1999.90;999.90;;;;;;;-1.52;62.22;101350.84;4963524;28;96942;-71
2022/01/27 09:22:58;;;;;;;1999.90;999.90;;;;;;;-1.50;61.93;101324.03;4962057;28;99660;-71
2022/01/27 09:25:31;;;;;;;1999.90;999.90;;;;;;;-1.47;62.00;101333.81;4965709;28;99839;-71
2022/01/27 09:27:59;;;;;;;1999.90;999.90;;;;;;;-1.45;61.90;101327.91;4963361;28;97600;-70
2022/01/27 09:30:27;;;;;;;1999.90;999.90;;;;;;;-1.42;62.27;101332.47;4964201;28;96954;-71
2022/01/27 09:32:58;;;;;;;1999.90;999.90;;;;;;;-1.39;62.04;101322.25;4968733;28;99631;-71
2022/01/27 09:35:27;;;;;;;1999.90;999.90;;;;;;;-1.36;61.71;101332.97;4961136;28;97569;-71
2022/01/27 09:37:55;;;;;;;1999.90;999.90;;;;;;;-1.33;62.18;101328.88;4966614;28;97801;-71
2022/01/27 09:40:23;;;;;;;1999.90;999.90;;;;;;;-1.30;61.73;101333.41;4969413;28;96754;-71
2022/01/27 09:42:53;;;;;;;1999.90;999.90;;;;;;;-1.26;62.04;101330.25;4965230;28;99417;-71
2022/01/27 09:45:21;;;;;;;1999.90;999.90;;;;;;;-1.21;62.09;101329.81;4965685;28;99381;-71
2022/01/27 09:47:55;;;;;;;1999.90;999.90;;;;;;;-1.20;62.13;101341.16;4966256;28;96917;-71
2022/01/27 09:50:34;;;;;;;1999.90;999.90;;;;;;;-1.18;62.32;101342.19;4967373;28;97186;-71
2022/01/27 09:53:02;;;;;;;1999.90;999.90;;;;;;;-1.15;62.19;101339.81;4963586;28;97673;-72
2022/01/27 09:55:30;;;;;;;1999.90;999.90;;;;;;;-1.09;62.42;101346.44;4956061;28;98726;-70
2022/01/27 09:58:05;;;;;;;1999.90;999.90;;;;;;;-1.05;62.12;101321.47;4967388;28;97277;-71
2022/01/27 10:00:33;;;;;;;1999.90;999.90;;;;;;;-1.03;62.17;101341.66;4966043;28;96849;-73
2022/01/27 10:03:05;;;;;;;1999.90;999.90;;;;;;;-1.00;61.97;101344.50;4967009;28;97486;-71
2022/01/27 10:05:36;;;;;;;1999.90;999.90;;;;;;;-0.99;62.14;101321.88;4967397;28;96733;-71
2022/01/27 10:08:05;;;;;;;1999.90;999.90;;;;;;;-0.94;62.33;101328.41;4968151;28;96922;-71
2022/01/27 10:10:38;;;;;;;1999.90;999.90;;;;;;;-0.91;61.97;101326.00;4982130;28;97460;-71
2022/01/27 10:13:08;;;;;;;1999.90;999.90;;;;;;;-0.96;62.15;101333.47;4961765;28;99672;-71
2022/01/27 10:15:46;;;;;;;1999.90;999.90;;;;;;;-0.89;62.47;101325.34;4963207;28;96990;-71
2022/01/27 10:18:15;;;;;;;1999.90;999.90;;;;;;;-0.83;61.99;101304.00;4964417;28;98155;-71
2022/01/27 10:21:00;;;;;;;1999.90;999.90;;;;;;;-0.83;62.05;101306.59;4967337;28;96892;-72
2022/01/27 10:23:33;;;;;;;1999.90;999.90;;;;;;;-0.78;62.21;101275.56;4960492;28;100395;-71
2022/01/27 10:26:10;;;;;;;1999.90;999.90;;;;;;;-0.74;62.31;101295.91;4955675;28;100320;-71
2022/01/27 10:28:45;;;;;;;1999.90;999.90;;;;;;;-0.71;61.90;101291.81;4961545;28;97189;-72
2022/01/27 10:31:19;;;;;;;1999.90;999.90;;;;;;;-0.66;61.76;101303.50;4964799;28;97224;-72
2022/01/27 10:33:49;;;;;;;1999.90;999.90;;;;;;;-0.67;62.13;101292.97;4963619;28;96988;-70
2022/01/27 10:36:21;;;;;;;1999.90;999.90;;;;;;;-0.65;62.03;101310.56;4966288;28;97718;-70
2022/01/27 10:38:56;;;;;;;1999.90;999.90;;;;;;;-0.64;61.69;101285.31;4937648;28;96848;-70
2022/01/27 10:41:25;;;;;;;1999.90;999.90;;;;;;;-0.59;61.84;101274.41;4964446;28;96910;-70
2022/01/27 10:44:10;;;;;;;1999.90;999.90;;;;;;;-0.64;62.05;101273.19;4964101;28;100708;-70
2022/01/27 10:46:45;;;;;;;1999.90;999.90;;;;;;;-0.62;62.24;101263.75;4965937;28;98923;-69
2022/01/27 10:49:23;;;;;;;1999.90;999.90;;;;;;;-0.64;62.44;101281.03;4963403;28;97961;-70
2022/01/27 10:51:54;;;;;;;1999.90;999.90;;;;;;;-0.58;62.21;101265.81;4960509;28;96811;-71
2022/01/27 10:54:35;;;;;;;1999.90;999.90;;;;;;;-0.57;62.23;101248.38;4954129;28;99439;-72
2022/01/27 10:57:04;;;;;;;1999.90;999.90;;;;;;;-0.51;62.16;101262.84;4965882;28;99219;-70
2022/01/27 10:59:33;;;;;;;1999.90;999.90;;;;;;;-0.48;62.06;101278.72;4962784;28;97005;-72
2022/01/27 11:02:05;;;;;;;1999.90;999.90;;;;;;;-0.46;62.14;101256.22;4945294;28;97365;-71
2022/01/27 11:04:37;;;;;;;1999.90;999.90;;;;;;;-0.43;62.28;101255.56;4961589;28;100412;-70
2022/01/27 11:07:09;;;;;;;1999.90;999.90;;;;;;;-0.39;62.28;101242.78;4966887;28;99872;-70
2022/01/27 11:09:41;;;;;;;1999.90;999.90;;;;;;;-0.33;61.89;101242.31;4959841;28;98396;-70
2022/01/27 11:12:13;;;;;;;1999.90;999.90;;;;;;;-0.32;62.14;101228.47;4956320;28;98411;-69
2022/01/27 11:14:41;;;;;;;1999.90;999.90;;;;;;;-0.32;62.14;101250.28;4953826;28;97788;-70
2022/01/27 11:17:11;;;;;;;1999.90;999.90;;;;;;;-0.30;62.10;101310.56;4955836;28;98277;-70
2022/01/27 11:20:02;;;;;;;1999.90;999.90;;;;;;;-0.32;62.15;101258.13;4939403;28;99760;-70
2022/01/27 11:22:58;;;;;;;1999.90;999.90;;;;;;;-0.28;62.42;101256.66;4961404;28;97095;-71
2022/01/27 11:28:15;;;;;;;1999.90;999.90;;;;;;;-0.24;62.51;101250.81;4965517;28;98786;-72